Time;durP1;ratioP1;P1;durP2;ratioP2;P2;SDS_P1;SDS_P2;PMS_P1;PMS_P2;Temp;Humidity;BMP_temperature;BMP_pressure;BME280_temperature;BME280_humidity;BME280_pressure;Samples;Min_cycle;Max_cycle;Signal;HPM_P1;HPM_P2
2022/04/01 00:08:11;;;;;;;7.68;3.58;;;;;;;12.83;74.83;98103.25;18370321;32;20472;-67
2022/04/01 00:18:16;;;;;;;6.75;3.20;;;;;;;12.81;74.77;98091.12;18369755;32;20089;-67
2022/04/01 00:28:20;;;;;;;7.05;3.30;;;;;;;12.78;74.72;98086.91;18369799;32;20524;-67
2022/04/01 00:38:25;;;;;;;6.72;3.33;;;;;;;12.67;75.26;98081.34;18368804;32;20489;-67
2022/04/01 00:48:29;;;;;;;7.93;3.08;;;;;;;12.90;74.57;98086.31;18368636;32;20098;-67
2022/04/01 00:58:34;;;;;;;5.93;2.78;;;;;;;12.85;74.92;98069.97;18369556;32;20359;-68
2022/04/01 01:08:37;;;;;;;7.90;3.30;;;;;;;13.16;72.75;98078.09;18368228;32;20142;-68
2022/04/01 01:18:42;;;;;;;11.02;2.85;;;;;;;12.71;74.27;98070.66;18367760;32;20103;-67
2022/04/01 01:28:47;;;;;;;7.43;3.00;;;;;;;12.82;74.33;98085.84;18366903;32;20151;-67
2022/04/01 01:38:51;;;;;;;7.05;3.20;;;;;;;12.54;75.26;98073.22;18365608;32;20089;-67
2022/04/01 01:48:55;;;;;;;7.57;3.05;;;;;;;12.71;74.66;98056.69;18366575;32;20093;-67
2022/04/01 01:59:00;;;;;;;10.98;3.70;;;;;;;12.60;74.79;98062.47;18366964;32;20401;-67
2022/04/01 02:09:05;;;;;;;10.52;3.42;;;;;;;12.88;73.14;98064.56;18365149;32;20097;-67
2022/04/01 02:19:09;;;;;;;10.93;3.78;;;;;;;12.63;74.87;98072.78;18364459;32;20454;-67
2022/04/01 02:29:14;;;;;;;7.10;3.40;;;;;;;12.36;75.99;98065.31;18363465;32;20377;-67
2022/04/01 02:39:18;;;;;;;11.10;4.22;;;;;;;12.41;76.05;98055.50;18363539;32;20131;-67
2022/04/01 02:49:23;;;;;;;10.88;4.70;;;;;;;12.39;76.25;98041.66;18368018;32;20094;-67
2022/04/01 02:59:26;;;;;;;11.10;3.60;;;;;;;12.82;73.99;98041.34;18371823;32;20107;-67
2022/04/01 03:09:31;;;;;;;7.68;3.67;;;;;;;12.70;74.60;98031.44;18371436;32;20093;-67
2022/04/01 03:19:35;;;;;;;14.45;4.60;;;;;;;12.65;74.57;98028.22;18371097;32;20093;-67
2022/04/01 03:29:40;;;;;;;11.60;3.95;;;;;;;12.47;76.05;98018.59;18370739;32;20115;-67
2022/04/01 03:39:43;;;;;;;10.73;4.45;;;;;;;12.32;76.72;98027.97;18370620;32;20359;-67
2022/04/01 03:49:51;;;;;;;10.63;3.30;;;;;;;12.73;74.85;98032.16;18370628;32;20386;-67
2022/04/01 03:59:57;;;;;;;9.75;3.42;;;;;;;12.73;74.34;98032.16;18369357;32;20710;-67
2022/04/01 04:10:02;;;;;;;9.60;3.47;;;;;;;12.71;74.97;98039.22;18369693;32;20351;-67
2022/04/01 04:20:09;;;;;;;7.90;3.47;;;;;;;12.41;75.41;98020.63;18369687;32;20358;-67
2022/04/01 04:30:15;;;;;;;8.40;3.45;;;;;;;12.59;74.98;98024.12;18369167;32;20488;-66
2022/04/01 04:40:21;;;;;;;7.40;3.65;;;;;;;12.60;74.85;98029.28;18369079;32;20101;-67
2022/04/01 04:50:26;;;;;;;5.60;2.87;;;;;;;12.86;73.60;98037.63;18369374;32;20108;-66
2022/04/01 05:00:29;;;;;;;5.95;2.72;;;;;;;12.46;75.10;98024.72;18368274;32;20105;-66
2022/04/01 05:10:39;;;;;;;9.35;3.50;;;;;;;12.26;76.00;98012.59;18367963;32;20655;-67
2022/04/01 05:20:49;;;;;;;11.00;3.53;;;;;;;12.22;76.44;98016.25;18367775;32;20143;-67
2022/04/01 05:30:59;;;;;;;8.27;2.60;;;;;;;12.37;76.03;98030.38;18367039;32;20094;-66
2022/04/01 05:41:03;;;;;;;7.95;3.40;;;;;;;12.29;76.28;98036.00;18366728;32;20434;-67
2022/04/01 05:51:08;;;;;;;7.72;2.80;;;;;;;12.30;76.53;98026.37;18366917;32;20133;-67
2022/04/01 06:01:16;;;;;;;11.12;3.80;;;;;;;12.51;75.77;98044.59;18366706;32;20121;-67
2022/04/01 06:11:32;;;;;;;8.80;2.70;;;;;;;12.52;76.07;98044.53;18365221;32;20105;-67
2022/04/01 06:21:38;;;;;;;5.35;2.17;;;;;;;12.52;76.29;98028.81;18366935;32;20090;-67
2022/04/01 06:31:54;;;;;;;3.78;1.98;;;;;;;12.31;77.09;98020.22;18372397;32;20152;-67
2022/04/01 06:42:01;;;;;;;5.93;2.20;;;;;;;12.43;76.75;98044.97;18372457;32;20085;-67
2022/04/01 06:52:09;;;;;;;4.68;1.77;;;;;;;12.48;75.87;98040.34;18372599;32;20409;-66
2022/04/01 07:02:12;;;;;;;7.43;3.37;;;;;;;12.32;76.35;98033.22;18371832;32;20152;-66
2022/04/01 07:12:19;;;;;;;5.82;2.62;;;;;;;12.45;75.80;98037.88;18369804;32;20107;-67
2022/04/01 07:22:22;;;;;;;7.03;2.58;;;;;;;12.38;76.30;98042.56;18367763;32;20124;-66
2022/04/01 07:32:32;;;;;;;10.07;3.65;;;;;;;12.61;76.44;98044.09;18368445;32;20089;-66
2022/04/01 07:42:38;;;;;;;10.43;4.30;;;;;;;12.86;75.33;98048.09;18370758;32;20363;-66
2022/04/01 07:52:44;;;;;;;10.35;3.65;;;;;;;12.96;74.09;98064.22;18367584;32;20101;-67
2022/04/01 08:02:49;;;;;;;6.53;2.75;;;;;;;12.59;76.67;98038.06;18368588;32;20115;-68
2022/04/01 08:12:54;;;;;;;4.12;1.73;;;;;;;12.94;75.66;98054.72;18368720;32;20147;-67
2022/04/01 08:22:57;;;;;;;6.00;2.08;;;;;;;13.01;75.72;98050.91;18369268;32;20093;-67
2022/04/01 08:33:03;;;;;;;10.30;4.32;;;;;;;12.95;75.58;98074.75;18368336;32;20125;-67
2022/04/01 08:43:06;;;;;;;4.32;2.25;;;;;;;13.32;74.91;98078.16;18368177;32;20414;-67
2022/04/01 08:53:11;;;;;;;2.67;1.70;;;;;;;13.59;73.41;98088.19;18367268;32;20101;-68
2022/04/01 09:03:16;;;;;;;2.65;1.25;;;;;;;13.24;75.85;98094.28;18367151;32;20499;-67
2022/04/01 09:13:23;;;;;;;4.40;1.90;;;;;;;13.09;74.81;98090.66;18364045;32;20101;-68
2022/04/01 09:23:27;;;;;;;2.12;1.20;;;;;;;13.71;72.00;98113.75;18366549;32;20111;-68
2022/04/01 09:33:50;;;;;;;1.62;1.10;;;;;;;13.52;73.19;98124.34;18366791;32;20109;-68
2022/04/01 09:44:01;;;;;;;0.82;0.82;;;;;;;13.28;74.67;98118.56;18366204;32;20118;-68
2022/04/01 09:54:06;;;;;;;9.80;2.60;;;;;;;13.79;73.28;98121.22;18364985;32;20133;-68
2022/04/01 10:04:28;;;;;;;1.42;0.90;;;;;;;13.83;72.27;98119.28;18365330;32;20092;-68
2022/04/01 10:14:38;;;;;;;1.45;1.08;;;;;;;13.67;72.08;98129.72;18364384;32;20161;-68
2022/04/01 10:25:03;;;;;;;1.33;0.88;;;;;;;13.70;68.93;98143.53;18363843;32;20097;-68
2022/04/01 10:35:10;;;;;;;2.67;0.90;;;;;;;13.39;71.59;98152.91;18362723;32;20132;-68
2022/04/01 10:45:24;;;;;;;2.75;1.70;;;;;;;13.10;71.43;98159.59;18362837;32;20464;-68
2022/04/01 10:55:29;;;;;;;2.10;1.17;;;;;;;13.15;69.55;98160.22;18361858;32;20101;-68
2022/04/01 11:05:33;;;;;;;4.53;1.92;;;;;;;13.03;70.19;98167.72;18362262;32;20103;-68
2022/04/01 11:15:37;;;;;;;1.12;0.82;;;;;;;11.77;74.62;98176.00;18348322;32;20105;-68
2022/04/01 11:25:53;;;;;;;1.30;1.10;;;;;;;12.22;71.82;98181.06;18342553;32;20394;-67
2022/04/01 11:35:58;;;;;;;2.75;1.40;;;;;;;11.87;72.56;98183.44;18369411;32;20108;-67
2022/04/01 11:46:05;;;;;;;2.20;1.20;;;;;;;12.34;72.76;98187.50;18370363;32;20108;-68
2022/04/01 11:56:11;;;;;;;4.93;1.55;;;;;;;12.57;69.60;98189.06;18369179;32;20093;-68
2022/04/01 12:16:42;;;;;;;4.22;1.83;;;;;;;12.22;70.43;98188.91;18361091;32;20378;-68
2022/04/01 12:26:47;;;;;;;4.93;2.30;;;;;;;11.76;69.88;98204.78;18345480;32;219059;-69
2022/04/01 12:37:00;;;;;;;5.60;2.67;;;;;;;11.40;68.97;98213.25;18368228;32;20105;-67
2022/04/01 12:47:06;;;;;;;3.85;2.28;;;;;;;11.44;68.26;98222.69;18368542;32;20456;-67
2022/04/01 12:57:12;;;;;;;6.10;3.25;;;;;;;11.38;68.22;98226.34;18343801;32;20708;-67
2022/04/01 13:07:18;;;;;;;7.93;4.28;;;;;;;11.36;67.38;98238.63;18334604;32;20427;-68
2022/04/01 13:17:23;;;;;;;10.00;5.07;;;;;;;11.66;66.63;98238.28;18367787;32;20114;-67
2022/04/01 13:27:27;;;;;;;9.70;5.32;;;;;;;11.68;65.25;98254.78;18364090;32;20433;-67
2022/04/01 13:37:32;;;;;;;9.73;4.65;;;;;;;11.04;66.77;98267.72;18353691;32;20105;-68
2022/04/01 13:47:35;;;;;;;10.45;4.47;;;;;;;11.17;66.46;98281.16;18319433;32;20081;-68
2022/04/01 13:57:40;;;;;;;10.75;5.47;;;;;;;11.30;65.59;98284.16;18305299;32;20133;-68
2022/04/01 14:07:44;;;;;;;9.40;5.32;;;;;;;11.33;64.26;98263.13;18329851;32;20093;-68
2022/04/01 14:17:48;;;;;;;11.43;6.10;;;;;;;11.71;64.67;98257.25;18355248;32;20117;-68
2022/04/01 14:27:52;;;;;;;11.98;6.32;;;;;;;11.75;63.63;98279.72;18357102;32;20094;-68
2022/04/01 14:37:57;;;;;;;16.25;7.18;;;;;;;11.31;63.92;98292.84;18361219;32;20371;-68
2022/04/01 14:48:00;;;;;;;12.05;7.10;;;;;;;11.32;64.11;98316.28;18362280;32;20181;-68
2022/04/01 14:58:05;;;;;;;13.55;7.03;;;;;;;11.41;63.33;98311.59;18369502;32;20093;-67
2022/04/01 15:08:09;;;;;;;11.88;6.62;;;;;;;11.21;62.59;98326.28;18372077;32;20434;-68
2022/04/01 15:18:15;;;;;;;12.18;7.22;;;;;;;11.23;63.90;98329.69;18371186;32;20093;-68
2022/04/01 15:28:19;;;;;;;14.45;8.10;;;;;;;10.95;63.33;98336.81;18370998;32;20093;-67
2022/04/01 15:38:28;;;;;;;14.82;8.52;;;;;;;11.28;61.60;98350.41;18371249;32;20116;-67
2022/04/01 15:48:31;;;;;;;15.15;8.82;;;;;;;11.29;61.64;98349.53;18370314;32;20097;-68
2022/04/01 15:58:36;;;;;;;13.85;7.55;;;;;;;11.06;61.38;98354.69;18369006;32;20153;-68
2022/04/01 16:09:01;;;;;;;14.57;7.95;;;;;;;10.81;60.95;98367.75;18367393;32;20093;-68
2022/04/01 16:19:26;;;;;;;13.85;8.18;;;;;;;10.97;61.37;98375.91;18369128;32;20114;-68
2022/04/01 16:29:29;;;;;;;16.00;9.10;;;;;;;11.12;61.39;98378.84;18368671;32;20151;-68
2022/04/01 16:39:34;;;;;;;17.65;9.90;;;;;;;10.74;60.74;98389.78;18368163;32;20531;-68
2022/04/01 16:49:38;;;;;;;17.83;9.32;;;;;;;10.88;61.73;98404.97;18368246;32;20105;-68
2022/04/01 16:59:43;;;;;;;16.27;9.38;;;;;;;10.44;61.35;98413.44;18368282;32;20168;-68
2022/04/01 17:20:11;;;;;;;18.43;10.77;;;;;;;10.15;61.71;98423.87;18367071;32;20101;-68
2022/04/01 17:30:16;;;;;;;16.08;9.00;;;;;;;10.27;61.20;98428.69;18366201;32;20134;-68
2022/04/01 17:40:22;;;;;;;15.13;8.52;;;;;;;10.08;61.33;98433.66;18364011;32;20107;-68
2022/04/01 17:50:30;;;;;;;20.08;10.00;;;;;;;10.04;61.50;98447.66;18366176;32;20123;-67
2022/04/01 18:00:35;;;;;;;19.00;10.23;;;;;;;9.65;62.18;98455.81;18365072;32;20086;-68
2022/04/01 18:10:38;;;;;;;19.20;10.75;;;;;;;9.53;61.78;98467.44;18353955;32;20108;-67
2022/04/01 18:20:43;;;;;;;17.33;9.60;;;;;;;9.51;62.06;98466.63;18368546;32;20216;-68
2022/04/01 18:30:49;;;;;;;20.35;9.05;;;;;;;8.98;62.28;98470.69;18371806;32;20090;-67
2022/04/01 18:40:55;;;;;;;16.58;8.38;;;;;;;9.00;61.29;98474.09;18371798;32;20663;-67
2022/04/01 18:50:59;;;;;;;17.42;8.43;;;;;;;8.65;61.97;98483.66;18364768;32;20414;-67
2022/04/01 19:01:04;;;;;;;14.93;8.10;;;;;;;9.04;61.07;98485.28;18362247;32;20454;-69
2022/04/01 19:11:13;;;;;;;16.83;9.10;;;;;;;8.82;60.99;98506.66;18360588;32;20107;-68
2022/04/01 19:21:20;;;;;;;17.70;9.25;;;;;;;8.92;61.66;98513.34;18227073;32;20118;-69
2022/04/01 19:31:23;;;;;;;16.67;8.65;;;;;;;8.51;61.97;98528.22;18230004;32;20493;-68
2022/04/01 19:41:28;;;;;;;19.30;9.98;;;;;;;8.68;61.59;98546.00;18290247;32;20093;-67
2022/04/01 19:51:31;;;;;;;16.75;9.25;;;;;;;8.61;61.33;98571.31;18337147;32;20690;-67
2022/04/01 20:01:37;;;;;;;17.35;8.57;;;;;;;8.59;62.00;98583.50;18361447;32;20102;-68
2022/04/01 20:11:40;;;;;;;16.12;8.65;;;;;;;8.68;61.44;98578.09;18362651;32;20438;-68
2022/04/01 20:21:45;;;;;;;15.27;8.48;;;;;;;8.38;60.76;98575.28;18363784;32;20097;-68
2022/04/01 20:31:48;;;;;;;15.65;7.95;;;;;;;8.29;61.71;98598.91;18361581;32;20498;-67
2022/04/01 20:41:53;;;;;;;18.83;9.70;;;;;;;8.22;63.69;98592.13;18365913;32;20093;-67
2022/04/01 20:51:56;;;;;;;18.25;9.18;;;;;;;7.90;61.95;98610.09;18355429;32;20120;-67
2022/04/01 21:02:00;;;;;;;18.12;8.45;;;;;;;8.00;61.07;98609.00;18302544;32;20447;-70
2022/04/01 21:12:04;;;;;;;18.55;8.23;;;;;;;7.80;61.49;98614.63;18303019;32;20093;-66
2022/04/01 21:22:09;;;;;;;14.45;7.62;;;;;;;7.99;60.13;98627.25;18302500;32;20098;-67
2022/04/01 21:32:12;;;;;;;15.27;8.40;;;;;;;7.75;61.21;98639.81;18324733;32;20094;-67
2022/04/01 21:42:17;;;;;;;17.20;9.52;;;;;;;7.49;61.62;98652.41;18364946;32;20101;-68
2022/04/01 21:52:20;;;;;;;18.05;9.55;;;;;;;7.25;62.29;98640.72;18363347;32;20174;-67
2022/04/01 22:02:25;;;;;;;14.48;8.90;;;;;;;7.21;62.52;98631.28;18364267;32;20121;-67
2022/04/01 22:12:28;;;;;;;19.90;9.45;;;;;;;7.07;62.22;98639.28;18364007;32;20139;-67
2022/04/01 22:22:33;;;;;;;16.58;7.72;;;;;;;7.03;61.49;98635.00;18363090;32;20509;-67
2022/04/01 22:32:37;;;;;;;15.95;8.32;;;;;;;7.06;61.66;98641.00;18362695;32;20459;-67
2022/04/01 22:42:41;;;;;;;22.00;9.95;;;;;;;7.12;61.01;98647.00;18361735;32;20093;-67
2022/04/01 22:52:44;;;;;;;16.37;8.75;;;;;;;6.82;62.27;98638.78;18362479;32;20109;-67
2022/04/01 23:02:49;;;;;;;15.60;8.88;;;;;;;7.00;61.38;98635.06;18363723;32;20093;-66
2022/04/01 23:12:53;;;;;;;15.20;8.23;;;;;;;6.74;61.62;98636.31;18369609;32;20097;-67
2022/04/01 23:22:58;;;;;;;17.12;7.72;;;;;;;6.91;62.43;98634.34;18370025;32;20112;-66
2022/04/01 23:33:01;;;;;;;18.55;9.50;;;;;;;6.87;61.08;98637.84;18369678;32;20116;-67
2022/04/01 23:43:06;;;;;;;19.02;9.82;;;;;;;6.65;60.74;98645.94;18368747;32;20478;-67
2022/04/01 23:53:09;;;;;;;17.95;9.13;;;;;;;6.43;60.89;98652.31;18368768;32;20146;-67
